createdAt,value
2023-05-19T00:00:06.059Z,99937.53
2023-05-19T00:02:37.502Z,99937.81
2023-05-19T00:05:03.888Z,99940.03
2023-05-19T00:07:30.307Z,99929.63
2023-05-19T00:09:56.721Z,99933.50
2023-05-19T00:12:23.148Z,99928.31
2023-05-19T00:14:49.548Z,99927.53
2023-05-19T00:17:15.909Z,99928.94
2023-05-19T00:19:42.269Z,99924.59
2023-05-19T00:22:08.656Z,99925.72
2023-05-19T00:24:35.021Z,99917.03
2023-05-19T00:27:01.413Z,99917.63
2023-05-19T00:29:27.859Z,99917.03
2023-05-19T00:31:54.249Z,99912.69
2023-05-19T00:34:20.775Z,99907.53
2023-05-19T00:36:47.186Z,99909.44
2023-05-19T00:39:13.988Z,99895.47
2023-05-19T00:41:41.131Z,99891.94
2023-05-19T00:44:07.526Z,99885.69
2023-05-19T00:46:34.010Z,99880.22
2023-05-19T00:49:00.576Z,99879.44
2023-05-19T00:51:27.235Z,99893.34
2023-05-19T00:53:53.652Z,99886.28
2023-05-19T00:56:20.051Z,99888.81
2023-05-19T00:58:46.488Z,99891.22
2023-05-19T01:01:12.929Z,99890.41
2023-05-19T01:03:39.355Z,99887.69
2023-05-19T01:06:06.316Z,99879.81
2023-05-19T01:08:32.666Z,99880.91
2023-05-19T01:10:59.082Z,99889.91
2023-05-19T01:13:25.498Z,99881.84
2023-05-19T01:15:51.907Z,99881.84
2023-05-19T01:18:18.307Z,99876.50
2023-05-19T01:20:44.753Z,99879.22
2023-05-19T01:23:11.120Z,99886.28
2023-05-19T01:25:37.490Z,99878.72
2023-05-19T01:28:04.141Z,99879.03
2023-05-19T01:30:30.782Z,99876.59
2023-05-19T01:32:57.333Z,99877.50
2023-05-19T01:35:23.798Z,99874.44
2023-05-19T01:37:50.574Z,99868.28
2023-05-19T01:40:16.961Z,99866.97
2023-05-19T01:42:43.360Z,99868.34
2023-05-19T01:45:09.728Z,99874.78
2023-05-19T01:47:36.095Z,99864.28
2023-05-19T01:50:02.536Z,99872.66
2023-05-19T01:52:28.925Z,99867.72
2023-05-19T01:54:55.304Z,99868.53
2023-05-19T01:57:22.114Z,99865.81
2023-05-19T01:59:48.486Z,99867.31
2023-05-19T02:02:14.836Z,99870.66
2023-05-19T02:04:41.275Z,99864.09
2023-05-19T02:07:07.671Z,99862.28
2023-05-19T02:09:35.289Z,99862.97
2023-05-19T02:12:01.879Z,99857.31
2023-05-19T02:14:28.265Z,99855.38
2023-05-19T02:16:54.992Z,99852.53
2023-05-19T02:19:21.878Z,99852.97
2023-05-19T02:21:48.276Z,99849.72
2023-05-19T02:24:14.632Z,99841.28
2023-05-19T02:26:41.134Z,99846.34
2023-05-19T02:29:07.500Z,99836.13
2023-05-19T02:31:33.911Z,99831.28
2023-05-19T02:34:00.542Z,99835.34
2023-05-19T02:36:26.925Z,99839.56
2023-05-19T02:38:53.297Z,99833.88
2023-05-19T02:41:20.703Z,99827.88
2023-05-19T02:43:47.463Z,99827.72
2023-05-19T02:46:13.951Z,99838.16
2023-05-19T02:48:40.672Z,99838.03
2023-05-19T02:51:07.080Z,99843.69
2023-05-19T02:53:33.457Z,99838.88
2023-05-19T02:55:59.875Z,99842.00
2023-05-19T02:58:26.251Z,99840.00
2023-05-19T03:00:52.642Z,99848.22
2023-05-19T03:03:19.125Z,99848.69
2023-05-19T03:05:45.572Z,99852.09
2023-05-19T03:08:11.916Z,99845.84
2023-05-19T03:10:38.326Z,99842.47
2023-05-19T03:13:04.770Z,99848.53
2023-05-19T03:15:31.206Z,99843.84
2023-05-19T03:17:57.718Z,99848.69
2023-05-19T03:20:24.180Z,99849.91
2023-05-19T03:22:50.717Z,99846.06
2023-05-19T03:25:17.138Z,99841.84
2023-05-19T03:27:43.521Z,99850.66
2023-05-19T03:30:09.910Z,99843.22
2023-05-19T03:32:47.718Z,99851.16
2023-05-19T03:35:14.340Z,99848.66
2023-05-19T03:37:40.900Z,99852.34
2023-05-19T03:40:07.466Z,99852.34
2023-05-19T03:42:36.253Z,99857.97
2023-05-19T03:45:03.245Z,99853.00
2023-05-19T03:47:30.047Z,99859.94
2023-05-19T03:50:03.461Z,99851.00
2023-05-19T03:52:48.422Z,99854.13
2023-05-19T03:55:29.350Z,99844.97
2023-05-19T03:57:55.852Z,99847.28
2023-05-19T04:00:22.324Z,99853.72
2023-05-19T04:02:50.525Z,99855.97
2023-05-19T04:05:17.167Z,99858.56
2023-05-19T04:07:43.610Z,99851.94
2023-05-19T04:10:10.066Z,99863.22
2023-05-19T04:12:36.517Z,99864.69
2023-05-19T04:15:03.008Z,99865.28
2023-05-19T04:17:29.596Z,99868.81
2023-05-19T04:19:56.205Z,99856.53
2023-05-19T04:22:22.676Z,99856.66
2023-05-19T04:24:49.280Z,99855.63
2023-05-19T04:27:15.890Z,99869.44
2023-05-19T04:29:42.266Z,99872.34
2023-05-19T04:32:08.782Z,99876.69
2023-05-19T04:34:35.393Z,99883.06
2023-05-19T04:37:03.268Z,99880.75
2023-05-19T04:39:29.928Z,99886.53
2023-05-19T04:41:56.732Z,99880.16
2023-05-19T04:44:23.580Z,99880.13
2023-05-19T04:46:51.348Z,99876.81
2023-05-19T04:49:18.090Z,99868.88
2023-05-19T04:51:44.615Z,99866.72
2023-05-19T04:54:11.127Z,99866.63
2023-05-19T04:56:37.705Z,99876.34
2023-05-19T04:59:04.605Z,99878.53
2023-05-19T05:01:31.603Z,99877.38
2023-05-19T05:03:58.541Z,99877.31
2023-05-19T05:06:25.098Z,99872.53
2023-05-19T05:08:51.690Z,99880.69
2023-05-19T05:11:18.277Z,99874.53
2023-05-19T05:13:45.064Z,99878.53
2023-05-19T05:16:11.566Z,99879.13
2023-05-19T05:18:38.768Z,99875.19
2023-05-19T05:21:05.421Z,99872.81
2023-05-19T05:23:32.549Z,99875.00
2023-05-19T05:25:59.139Z,99878.25
2023-05-19T05:28:25.664Z,99885.03
2023-05-19T05:30:53.324Z,99889.66
2023-05-19T05:33:20.118Z,99882.34
2023-05-19T05:35:46.677Z,99882.69
2023-05-19T05:38:14.215Z,99882.81
2023-05-19T05:40:41.855Z,99883.16
2023-05-19T05:43:08.860Z,99876.16
2023-05-19T05:45:41.343Z,99876.41
2023-05-19T05:48:07.969Z,99876.38
2023-05-19T05:50:34.650Z,99877.19
2023-05-19T05:53:02.183Z,99882.94
2023-05-19T05:55:28.687Z,99890.50
2023-05-19T05:57:55.223Z,99886.78
2023-05-19T06:00:21.834Z,99888.44
2023-05-19T06:02:52.399Z,99879.25
2023-05-19T06:05:19.700Z,99892.56
2023-05-19T06:07:47.713Z,99894.41
2023-05-19T06:10:19.535Z,99890.16
2023-05-19T06:12:46.988Z,99901.84
2023-05-19T06:15:14.800Z,99908.97
2023-05-19T06:18:04.486Z,99900.81
2023-05-19T06:20:31.154Z,99902.50
2023-05-19T06:22:58.119Z,99910.22
2023-05-19T06:25:26.667Z,99904.78
2023-05-19T06:27:53.127Z,99916.72
2023-05-19T06:30:20.980Z,99911.44
2023-05-19T06:32:57.269Z,99913.69
2023-05-19T06:35:24.992Z,99914.94
2023-05-19T06:37:51.426Z,99919.66
2023-05-19T06:40:17.948Z,99911.97
2023-05-19T06:42:44.690Z,99913.06
2023-05-19T06:45:16.450Z,99914.78
2023-05-19T06:47:43.020Z,99915.66
2023-05-19T06:50:09.496Z,99919.25
2023-05-19T06:52:38.534Z,99918.72
2023-05-19T06:55:05.727Z,99910.28
2023-05-19T06:57:33.260Z,99908.41
2023-05-19T07:00:01.017Z,99917.16
2023-05-19T07:02:27.633Z,99910.19
2023-05-19T07:04:54.131Z,99917.16
2023-05-19T07:07:21.765Z,99918.53
2023-05-19T07:09:48.643Z,99920.91
2023-05-19T07:12:15.221Z,99924.03
2023-05-19T07:14:41.666Z,99925.75
2023-05-19T07:17:08.141Z,99927.53
2023-05-19T07:19:36.190Z,99922.81
2023-05-19T07:22:03.169Z,99924.41
2023-05-19T07:24:29.666Z,99920.13
2023-05-19T07:26:56.136Z,99924.69
2023-05-19T07:29:22.648Z,99926.03
2023-05-19T07:31:49.216Z,99928.00
2023-05-19T07:34:15.676Z,99928.97
2023-05-19T07:36:42.147Z,99929.44
2023-05-19T07:39:08.689Z,99928.66
2023-05-19T07:41:36.361Z,99929.69
2023-05-19T07:44:03.050Z,99936.47
2023-05-19T07:46:29.634Z,99938.59
2023-05-19T07:48:56.120Z,99938.97
2023-05-19T07:51:22.514Z,99937.28
2023-05-19T07:53:48.947Z,99934.59
2023-05-19T07:56:15.430Z,99932.97
2023-05-19T07:58:41.900Z,99933.22
2023-05-19T08:01:08.511Z,99928.50
2023-05-19T08:03:35.243Z,99924.75
2023-05-19T08:06:01.810Z,99932.31
2023-05-19T08:08:28.273Z,99929.59
2023-05-19T08:10:54.681Z,99920.81
2023-05-19T08:13:21.095Z,99937.31
2023-05-19T08:15:47.619Z,99928.06
2023-05-19T08:18:14.117Z,99930.22
2023-05-19T08:20:40.546Z,99926.66
2023-05-19T08:23:07.006Z,99926.28
2023-05-19T08:25:33.454Z,99930.53
2023-05-19T08:28:00.083Z,99924.25
2023-05-19T08:30:26.594Z,99929.66
2023-05-19T08:32:53.048Z,99933.59
2023-05-19T08:35:19.570Z,99929.88
2023-05-19T08:37:46.038Z,99935.66
2023-05-19T08:40:12.449Z,99939.56
2023-05-19T08:42:38.851Z,99932.69
2023-05-19T08:45:05.416Z,99935.75
2023-05-19T08:47:31.914Z,99935.75
2023-05-19T08:49:58.365Z,99942.88
2023-05-19T08:52:24.838Z,99944.47
2023-05-19T08:54:51.279Z,99931.47
2023-05-19T08:57:17.733Z,99933.41
2023-05-19T08:59:44.194Z,99940.56
2023-05-19T09:02:10.634Z,99942.16
2023-05-19T09:04:37.147Z,99937.00
2023-05-19T09:07:03.669Z,99935.84
2023-05-19T09:09:30.084Z,99933.53
2023-05-19T09:11:56.500Z,99939.84
2023-05-19T09:14:22.994Z,99933.16
2023-05-19T09:16:49.502Z,99937.88
2023-05-19T09:19:15.972Z,99942.06
2023-05-19T09:21:43.595Z,99940.63
2023-05-19T09:24:10.909Z,99946.00
2023-05-19T09:26:38.750Z,99951.66
2023-05-19T09:29:05.211Z,99933.13
2023-05-19T09:31:31.667Z,99943.00
2023-05-19T09:33:58.121Z,99940.72
2023-05-19T09:36:24.548Z,99941.97
2023-05-19T09:38:50.920Z,99941.16
2023-05-19T09:41:17.358Z,99940.34
2023-05-19T09:43:43.800Z,99931.16
2023-05-19T09:46:12.004Z,99941.41
2023-05-19T09:48:40.145Z,99936.13
2023-05-19T09:51:06.656Z,99934.53
2023-05-19T09:53:33.122Z,99935.69
2023-05-19T09:55:59.584Z,99940.31
2023-05-19T09:58:26.099Z,99930.69
2023-05-19T10:00:52.590Z,99927.72
2023-05-19T10:03:19.139Z,99928.34
2023-05-19T10:05:45.647Z,99928.34
2023-05-19T10:08:12.034Z,99934.22
2023-05-19T10:10:38.484Z,99934.22
2023-05-19T10:13:04.966Z,99932.97
2023-05-19T10:15:31.483Z,99925.50
2023-05-19T10:17:59.593Z,99932.53
2023-05-19T10:20:26.126Z,99923.78
2023-05-19T10:22:52.555Z,99926.69
2023-05-19T10:25:18.968Z,99922.06
2023-05-19T10:27:45.438Z,99934.63
2023-05-19T10:30:13.241Z,99930.72
2023-05-19T10:32:40.707Z,99922.09
2023-05-19T10:35:07.219Z,99932.78
2023-05-19T10:37:33.601Z,99928.63
2023-05-19T10:40:00.143Z,99933.00
2023-05-19T10:42:26.677Z,99927.13
2023-05-19T10:44:53.102Z,99928.41
2023-05-19T10:47:19.549Z,99925.63
2023-05-19T10:49:46.125Z,99921.25
2023-05-19T10:52:12.606Z,99926.44
2023-05-19T10:54:39.071Z,99923.34
2023-05-19T10:57:05.530Z,99925.41
2023-05-19T10:59:32.004Z,99928.16
2023-05-19T11:01:58.540Z,99926.44
2023-05-19T11:04:25.172Z,99920.91
2023-05-19T11:06:51.733Z,99928.03
2023-05-19T11:09:19.458Z,99930.78
2023-05-19T11:11:46.293Z,99923.00
2023-05-19T11:14:12.692Z,99925.50
2023-05-19T11:16:39.126Z,99919.28
2023-05-19T11:19:05.719Z,99921.69
2023-05-19T11:21:32.156Z,99910.66
2023-05-19T11:23:58.666Z,99912.97
2023-05-19T11:26:25.178Z,99913.75
2023-05-19T11:28:51.595Z,99922.03
2023-05-19T11:31:18.011Z,99920.91
2023-05-19T11:33:44.483Z,99922.50
2023-05-19T11:36:10.946Z,99920.53
2023-05-19T11:38:37.434Z,99921.22
2023-05-19T11:41:03.891Z,99910.56
2023-05-19T11:43:30.362Z,99914.03
2023-05-19T11:45:56.947Z,99917.13
2023-05-19T11:48:23.730Z,99914.81
2023-05-19T11:50:50.225Z,99915.84
2023-05-19T11:53:16.769Z,99911.84
2023-05-19T11:55:43.308Z,99921.38
2023-05-19T11:58:09.825Z,99915.16
2023-05-19T12:00:36.359Z,99912.41
2023-05-19T12:03:03.090Z,99913.22
2023-05-19T12:05:29.687Z,99914.81
2023-05-19T12:07:56.246Z,99912.41
2023-05-19T12:10:22.775Z,99913.56
2023-05-19T12:12:49.197Z,99916.78
2023-05-19T12:15:15.639Z,99916.78
2023-05-19T12:17:42.181Z,99902.53
2023-05-19T12:20:08.690Z,99917.13
2023-05-19T12:22:35.123Z,99908.59
2023-05-19T12:25:01.670Z,99905.47
2023-05-19T12:27:28.135Z,99896.88
2023-05-19T12:29:54.517Z,99898.59
2023-05-19T12:32:20.987Z,99876.94
2023-05-19T12:34:47.435Z,99887.53
2023-05-19T12:37:13.862Z,99892.22
2023-05-19T12:39:40.291Z,99887.97
2023-05-19T12:42:06.696Z,99889.59
2023-05-19T12:44:33.109Z,99889.13
2023-05-19T12:46:59.577Z,99877.66
2023-05-19T12:49:26.013Z,99877.59
2023-05-19T12:51:52.422Z,99879.84
2023-05-19T12:54:18.925Z,99878.59
2023-05-19T12:56:45.771Z,99888.13
2023-05-19T12:59:12.183Z,99881.53
2023-05-19T13:01:38.798Z,99885.50
2023-05-19T13:04:06.394Z,99881.44
2023-05-19T13:06:33.101Z,99878.81
2023-05-19T13:08:59.570Z,99875.25
2023-05-19T13:11:25.959Z,99874.31
2023-05-19T13:13:52.315Z,99876.84
2023-05-19T13:16:18.806Z,99872.72
2023-05-19T13:18:45.218Z,99874.66
2023-05-19T13:21:11.694Z,99875.16
2023-05-19T13:23:38.118Z,99878.84
2023-05-19T13:26:04.476Z,99884.38
2023-05-19T13:28:30.847Z,99894.72
2023-05-19T13:30:57.393Z,99878.66
2023-05-19T13:33:23.782Z,99878.91
2023-05-19T13:35:50.273Z,99874.88
2023-05-19T13:38:16.722Z,99870.53
2023-05-19T13:40:43.141Z,99873.97
2023-05-19T13:43:09.636Z,99878.22
2023-05-19T13:45:36.196Z,99878.09
2023-05-19T13:48:02.754Z,99873.16
2023-05-19T13:50:29.308Z,99876.03
2023-05-19T13:52:55.824Z,99864.69
2023-05-19T13:55:22.255Z,99864.47
2023-05-19T13:57:48.725Z,99862.53
2023-05-19T14:00:15.214Z,99859.16
2023-05-19T14:02:41.644Z,99868.47
2023-05-19T14:05:08.040Z,99860.22
2023-05-19T14:07:34.451Z,99872.75
2023-05-19T14:10:00.792Z,99865.34
2023-05-19T14:12:36.396Z,99861.56
2023-05-19T14:15:11.317Z,99867.97
2023-05-19T14:17:38.014Z,99868.06
2023-05-19T14:20:04.405Z,99866.25
2023-05-19T14:22:30.875Z,99865.88
2023-05-19T14:24:57.221Z,99871.16
2023-05-19T14:27:23.587Z,99879.06
2023-05-19T14:29:49.986Z,99875.16
2023-05-19T14:32:16.918Z,99885.03
2023-05-19T14:34:43.376Z,99878.72
2023-05-19T14:37:09.785Z,99877.69
2023-05-19T14:39:36.160Z,99878.63
2023-05-19T14:42:03.983Z,99876.66
2023-05-19T14:44:30.433Z,99872.31
2023-05-19T14:46:56.864Z,99863.22
2023-05-19T14:49:23.289Z,99869.88
2023-05-19T14:51:49.702Z,99863.47
2023-05-19T14:54:16.102Z,99866.13
2023-05-19T14:56:42.454Z,99868.06
2023-05-19T14:59:08.915Z,99868.91
2023-05-19T15:01:35.388Z,99872.47
2023-05-19T15:04:01.834Z,99866.84
2023-05-19T15:06:28.246Z,99874.78
2023-05-19T15:08:54.606Z,99871.56
2023-05-19T15:11:20.995Z,99872.25
2023-05-19T15:13:47.393Z,99874.53
2023-05-19T15:16:16.983Z,99880.53
2023-05-19T15:18:44.314Z,99881.22
2023-05-19T15:21:10.835Z,99876.06
2023-05-19T15:23:37.214Z,99871.69
2023-05-19T15:26:03.561Z,99875.25
2023-05-19T15:28:30.000Z,99879.94
2023-05-19T15:30:56.454Z,99872.84
2023-05-19T15:33:22.883Z,99869.03
2023-05-19T15:35:49.283Z,99868.00
2023-05-19T15:38:15.682Z,99867.66
2023-05-19T15:40:42.071Z,99862.94
2023-05-19T15:43:08.488Z,99858.25
2023-05-19T15:45:34.865Z,99862.94
2023-05-19T15:48:01.329Z,99853.19
2023-05-19T15:50:27.796Z,99856.28
2023-05-19T15:52:54.174Z,99863.53
2023-05-19T15:55:20.585Z,99855.03
2023-05-19T15:57:47.052Z,99867.66
2023-05-19T16:00:13.402Z,99864.78
2023-05-19T16:02:39.886Z,99855.50
2023-05-19T16:05:06.362Z,99867.66
2023-05-19T16:07:32.740Z,99871.09
2023-05-19T16:09:59.116Z,99877.88
2023-05-19T16:12:25.512Z,99866.84
2023-05-19T16:14:51.898Z,99869.16
2023-05-19T16:17:18.262Z,99862.38
2023-05-19T16:19:44.673Z,99867.91
2023-05-19T16:22:11.192Z,99856.41
2023-05-19T16:24:37.542Z,99867.09
2023-05-19T16:27:03.946Z,99869.72
2023-05-19T16:29:30.291Z,99879.25
2023-05-19T16:31:56.715Z,99874.44
2023-05-19T16:34:23.222Z,99877.56
2023-05-19T16:36:49.574Z,99877.56
2023-05-19T16:39:15.957Z,99880.66
2023-05-19T16:41:42.389Z,99884.56
2023-05-19T16:44:08.760Z,99887.63
2023-05-19T16:46:35.211Z,99875.00
2023-05-19T16:49:01.762Z,99877.28
2023-05-19T16:51:28.162Z,99865.00
2023-05-19T16:53:54.544Z,99875.22
2023-05-19T16:56:20.944Z,99882.22
2023-05-19T16:58:47.326Z,99883.06
2023-05-19T17:01:13.736Z,99880.16
2023-05-19T17:03:40.325Z,99887.16
2023-05-19T17:06:06.796Z,99885.94
2023-05-19T17:08:33.205Z,99890.50
2023-05-19T17:10:59.630Z,99886.47
2023-05-19T17:13:25.985Z,99888.00
2023-05-19T17:15:52.365Z,99895.00
2023-05-19T17:18:18.775Z,99885.00
2023-05-19T17:20:45.199Z,99880.53
2023-05-19T17:23:11.588Z,99887.97
2023-05-19T17:25:37.988Z,99884.41
2023-05-19T17:28:04.335Z,99885.91
2023-05-19T17:30:30.725Z,99895.66
2023-05-19T17:32:57.242Z,99897.28
2023-05-19T17:35:23.619Z,99890.84
2023-05-19T17:37:49.969Z,99893.47
2023-05-19T17:40:16.374Z,99894.72
2023-05-19T17:42:42.749Z,99892.09
2023-05-19T17:45:09.112Z,99890.03
2023-05-19T17:47:35.536Z,99888.75
2023-05-19T17:50:02.013Z,99885.56
2023-05-19T17:52:28.389Z,99892.88
2023-05-19T17:54:54.812Z,99900.66
2023-05-19T17:57:21.206Z,99900.22
2023-05-19T17:59:47.555Z,99895.38
2023-05-19T18:02:14.029Z,99899.25
2023-05-19T18:04:40.469Z,99901.56
2023-05-19T18:07:06.830Z,99896.72
2023-05-19T18:09:33.258Z,99897.41
2023-05-19T18:11:59.665Z,99891.91
2023-05-19T18:14:26.014Z,99893.03
2023-05-19T18:16:52.473Z,99898.91
2023-05-19T18:19:19.015Z,99905.88
2023-05-19T18:21:45.412Z,99907.81
2023-05-19T18:24:11.799Z,99898.31
2023-05-19T18:26:38.206Z,99893.94
2023-05-19T18:29:04.550Z,99898.50
2023-05-19T18:31:30.985Z,99899.66
2023-05-19T18:33:57.384Z,99896.13
2023-05-19T18:36:23.729Z,99894.84
2023-05-19T18:38:50.149Z,99895.97
2023-05-19T18:41:16.549Z,99906.53
2023-05-19T18:43:42.946Z,99899.06
2023-05-19T18:46:09.473Z,99909.28
2023-05-19T18:48:35.958Z,99909.47
2023-05-19T18:51:02.336Z,99919.00
2023-05-19T18:53:28.782Z,99911.91
2023-05-19T18:55:55.230Z,99920.94
2023-05-19T18:58:21.603Z,99933.53
2023-05-19T19:00:48.094Z,99929.88
2023-05-19T19:03:14.556Z,99938.81
2023-05-19T19:05:41.025Z,99936.06
2023-05-19T19:08:07.485Z,99937.84
2023-05-19T19:10:34.085Z,99940.47
2023-05-19T19:13:00.796Z,99943.09
2023-05-19T19:15:27.263Z,99948.59
2023-05-19T19:17:53.776Z,99935.16
2023-05-19T19:20:20.197Z,99938.16
2023-05-19T19:22:46.697Z,99929.97
2023-05-19T19:25:13.148Z,99935.13
2023-05-19T19:27:39.533Z,99938.06
2023-05-19T19:30:05.996Z,99935.66
2023-05-19T19:32:32.588Z,99934.19
2023-05-19T19:34:59.063Z,99929.69
2023-05-19T19:37:25.473Z,99937.13
2023-05-19T19:39:51.869Z,99936.66
2023-05-19T19:42:18.292Z,99933.75
2023-05-19T19:44:44.707Z,99933.13
2023-05-19T19:47:11.155Z,99928.44
2023-05-19T19:49:37.605Z,99934.75
2023-05-19T19:52:04.043Z,99925.38
2023-05-19T19:54:30.424Z,99932.81
2023-05-19T19:56:56.786Z,99936.22
2023-05-19T19:59:23.188Z,99925.25
2023-05-19T20:01:49.609Z,99933.41
2023-05-19T20:04:16.114Z,99933.41
2023-05-19T20:06:42.593Z,99941.47
2023-05-19T20:09:08.963Z,99943.31
2023-05-19T20:11:35.376Z,99940.56
2023-05-19T20:14:01.809Z,99938.59
2023-05-19T20:16:28.333Z,99944.09
2023-05-19T20:18:54.817Z,99943.63
2023-05-19T20:21:21.249Z,99946.38
2023-05-19T20:23:47.769Z,99937.53
2023-05-19T20:26:14.134Z,99938.34
2023-05-19T20:28:40.649Z,99935.09
2023-05-19T20:31:07.071Z,99936.91
2023-05-19T20:33:33.518Z,99928.69
2023-05-19T20:35:59.973Z,99938.19
2023-05-19T20:38:26.365Z,99939.19
2023-05-19T20:40:52.728Z,99939.03
2023-05-19T20:43:19.137Z,99944.84
2023-05-19T20:45:45.576Z,99937.41
2023-05-19T20:48:11.988Z,99937.94
2023-05-19T20:50:38.550Z,99946.53
2023-05-19T20:53:04.912Z,99948.00
2023-05-19T20:55:31.490Z,99942.16
2023-05-19T20:57:58.044Z,99944.91
2023-05-19T21:00:24.410Z,99944.09
2023-05-19T21:02:50.811Z,99951.84
2023-05-19T21:05:17.294Z,99941.69
2023-05-19T21:07:43.709Z,99940.72
2023-05-19T21:10:10.060Z,99936.38
2023-05-19T21:12:36.458Z,99933.63
2023-05-19T21:15:02.808Z,99933.94
2023-05-19T21:17:29.257Z,99936.69
2023-05-19T21:19:55.698Z,99932.66
2023-05-19T21:22:22.068Z,99936.25
2023-05-19T21:24:48.434Z,99934.63
2023-05-19T21:27:14.845Z,99932.22
2023-05-19T21:29:41.196Z,99935.28
2023-05-19T21:32:07.547Z,99940.97
2023-05-19T21:34:33.957Z,99949.00
2023-05-19T21:37:00.318Z,99944.97
2023-05-19T21:39:26.708Z,99944.50
2023-05-19T21:41:53.099Z,99945.63
2023-05-19T21:44:19.509Z,99944.03
2023-05-19T21:46:45.924Z,99939.34
2023-05-19T21:49:12.476Z,99930.31
2023-05-19T21:51:38.840Z,99934.19
2023-05-19T21:54:05.192Z,99927.06
2023-05-19T21:56:31.605Z,99929.81
2023-05-19T21:58:57.961Z,99928.22
2023-05-19T22:01:24.415Z,99932.09
2023-05-19T22:03:50.892Z,99933.88
2023-05-19T22:06:17.307Z,99933.88
2023-05-19T22:08:43.677Z,99935.03
2023-05-19T22:11:10.066Z,99944.41
2023-05-19T22:13:36.430Z,99938.75
2023-05-19T22:16:02.831Z,99934.75
2023-05-19T22:18:29.280Z,99930.06
2023-05-19T22:20:55.632Z,99924.56
2023-05-19T22:23:21.972Z,99911.50
2023-05-19T22:25:48.376Z,99918.09
2023-05-19T22:28:14.804Z,99918.44
2023-05-19T22:30:41.512Z,99911.97
2023-05-19T22:33:08.251Z,99907.97
2023-05-19T22:35:34.661Z,99918.94
2023-05-19T22:38:01.016Z,99911.84
2023-05-19T22:40:27.416Z,99910.56
2023-05-19T22:42:53.786Z,99907.34
2023-05-19T22:45:20.161Z,99906.38
2023-05-19T22:47:46.629Z,99911.84
2023-05-19T22:50:13.008Z,99916.06
2023-05-19T22:52:39.356Z,99916.53
2023-05-19T22:55:05.852Z,99924.63
2023-05-19T22:57:32.192Z,99922.19
2023-05-19T22:59:58.557Z,99920.09
2023-05-19T23:02:25.046Z,99913.81
2023-05-19T23:04:51.552Z,99914.97
2023-05-19T23:07:17.930Z,99911.72
2023-05-19T23:09:44.322Z,99915.94
2023-05-19T23:12:10.677Z,99920.13
2023-05-19T23:14:37.051Z,99914.31
2023-05-19T23:17:03.580Z,99913.38
2023-05-19T23:19:30.001Z,99914.81
2023-05-19T23:21:56.430Z,99910.00
2023-05-19T23:24:22.820Z,99908.53
2023-05-19T23:26:49.187Z,99908.84
2023-05-19T23:29:15.584Z,99907.72
2023-05-19T23:31:42.086Z,99896.28
2023-05-19T23:34:08.501Z,99900.63
2023-05-19T23:36:34.923Z,99895.16
2023-05-19T23:39:01.342Z,99899.03
2023-05-19T23:41:27.714Z,99891.09
2023-05-19T23:43:54.162Z,99884.19
2023-05-19T23:46:20.713Z,99889.66
2023-05-19T23:48:47.149Z,99886.13
2023-05-19T23:51:13.601Z,99879.34
2023-05-19T23:53:40.029Z,99881.28
2023-05-19T23:56:06.478Z,99879.19
2023-05-19T23:58:32.938Z,99883.88
